createdAt,value
2023-01-11T00:00:58.734Z,7.36
2023-01-11T00:06:00.885Z,7.37
2023-01-11T00:11:03.862Z,7.41
2023-01-11T00:16:07.957Z,7.40
2023-01-11T00:21:10.427Z,7.30
2023-01-11T00:26:13.367Z,7.32
2023-01-11T00:31:16.518Z,6.96
2023-01-11T00:36:21.568Z,7.30
2023-01-11T00:41:42.517Z,7.32
2023-01-11T00:47:03.441Z,7.10
2023-01-11T00:52:09.686Z,7.34
2023-01-11T00:57:12.503Z,7.35
2023-01-11T01:02:14.921Z,7.34
2023-01-11T01:07:16.897Z,7.35
2023-01-11T01:12:39.153Z,7.14
2023-01-11T01:17:41.385Z,7.32
2023-01-11T01:22:43.438Z,7.31
2023-01-11T01:27:45.521Z,7.27
2023-01-11T01:32:47.610Z,7.25
2023-01-11T01:37:49.724Z,7.25
2023-01-11T01:42:55.504Z,7.27
2023-01-11T01:48:01.779Z,7.27
2023-01-11T01:53:09.270Z,7.26
2023-01-11T01:58:13.962Z,7.25
2023-01-11T02:03:21.637Z,7.25
2023-01-11T02:08:33.472Z,7.25
2023-01-11T02:13:46.290Z,7.02
2023-01-11T02:18:48.486Z,7.21
2023-01-11T02:24:30.418Z,7.18
2023-01-11T02:29:57.408Z,7.15
2023-01-11T02:35:27.009Z,7.19
2023-01-11T02:41:02.717Z,7.16
2023-01-11T02:46:06.914Z,7.18
2023-01-11T02:51:13.517Z,7.16
2023-01-11T02:56:37.812Z,7.15
2023-01-11T03:01:51.912Z,7.13
2023-01-11T03:07:06.145Z,7.10
2023-01-11T03:12:48.954Z,7.13
2023-01-11T03:18:15.033Z,6.95
2023-01-11T03:23:29.408Z,7.08
2023-01-11T03:29:01.471Z,6.93
2023-01-11T03:34:20.051Z,7.07
2023-01-11T03:39:40.432Z,7.06
2023-01-11T03:44:50.906Z,7.09
2023-01-11T03:49:56.781Z,7.04
2023-01-11T03:54:59.301Z,7.05
2023-01-11T04:00:01.405Z,7.07
2023-01-11T04:05:11.245Z,7.05
2023-01-11T04:10:13.499Z,7.04
2023-01-11T04:15:16.352Z,7.01
2023-01-11T04:20:18.455Z,6.83
2023-01-11T04:25:20.343Z,7.06
2023-01-11T04:30:22.790Z,7.02
2023-01-11T04:35:26.183Z,6.99
2023-01-11T04:40:28.216Z,7.03
2023-01-11T04:45:30.784Z,6.91
2023-01-11T04:50:32.792Z,7.06
2023-01-11T04:55:34.840Z,7.08
2023-01-11T05:00:36.802Z,7.06
2023-01-11T05:05:39.165Z,7.12
2023-01-11T05:10:41.306Z,7.12
2023-01-11T05:15:43.483Z,7.08
2023-01-11T05:20:49.313Z,7.08
2023-01-11T05:25:51.230Z,7.05
2023-01-11T05:30:56.585Z,6.81
2023-01-11T05:36:04.279Z,6.99
2023-01-11T05:41:08.205Z,6.98
2023-01-11T05:46:10.608Z,6.97
2023-01-11T05:51:12.525Z,7.00
2023-01-11T05:56:14.491Z,6.98
2023-01-11T06:01:17.780Z,6.98
2023-01-11T06:06:20.819Z,7.02
2023-01-11T06:11:22.849Z,7.05
2023-01-11T06:16:25.104Z,7.09
2023-01-11T06:21:27.262Z,7.05
2023-01-11T06:26:29.291Z,7.02
2023-01-11T06:31:31.429Z,7.06
2023-01-11T06:36:33.577Z,7.12
2023-01-11T06:41:35.520Z,7.09
2023-01-11T06:46:37.516Z,7.07
2023-01-11T06:51:39.451Z,7.03
2023-01-11T06:56:41.424Z,7.02
2023-01-11T07:01:43.371Z,7.04
2023-01-11T07:06:45.586Z,7.02
2023-01-11T07:11:47.854Z,6.96
2023-01-11T07:16:49.897Z,7.06
2023-01-11T07:21:52.173Z,7.10
2023-01-11T07:26:56.341Z,7.08
2023-01-11T07:31:58.567Z,7.01
2023-01-11T07:37:01.717Z,7.07
2023-01-11T07:42:22.870Z,7.09
2023-01-11T07:47:24.973Z,7.13
2023-01-11T07:52:27.184Z,7.12
2023-01-11T07:57:30.090Z,7.17
2023-01-11T08:02:32.441Z,7.13
2023-01-11T08:07:34.629Z,7.22
2023-01-11T08:13:01.253Z,7.24
2023-01-11T08:18:04.645Z,7.20
2023-01-11T08:23:09.295Z,7.19
2023-01-11T08:28:12.150Z,7.25
2023-01-11T08:33:14.228Z,7.26
2023-01-11T08:38:16.336Z,7.19
2023-01-11T08:43:18.452Z,7.29
2023-01-11T08:48:20.360Z,7.29
2023-01-11T08:53:22.453Z,7.26
2023-01-11T08:58:25.618Z,7.19
2023-01-11T09:03:28.770Z,7.17
2023-01-11T09:08:30.928Z,7.20
2023-01-11T09:13:33.077Z,7.24
2023-01-11T09:18:35.259Z,7.29
2023-01-11T09:23:37.899Z,7.22
2023-01-11T09:28:40.472Z,7.19
2023-01-11T09:33:42.516Z,7.26
2023-01-11T09:38:44.608Z,7.37
2023-01-11T09:43:53.620Z,7.26
2023-01-11T09:48:59.736Z,7.28
2023-01-11T09:54:06.159Z,7.52
2023-01-11T09:59:21.150Z,7.56
2023-01-11T10:05:19.721Z,7.51
2023-01-11T10:18:31.359Z,7.57
2023-01-11T10:22:40.816Z,7.67
2023-01-11T10:35:47.904Z,7.54
2023-01-11T10:41:22.346Z,7.67
2023-01-11T10:46:26.195Z,7.70
2023-01-11T10:51:32.980Z,7.81
2023-01-11T11:03:26.949Z,8.10
2023-01-11T11:08:28.981Z,7.96
2023-01-11T11:13:34.276Z,8.14
2023-01-11T11:18:36.475Z,8.21
2023-01-11T11:29:23.770Z,8.30
2023-01-11T11:34:27.600Z,8.34
2023-01-11T11:46:42.295Z,8.27
2023-01-11T11:51:46.209Z,8.34
2023-01-11T11:56:48.978Z,8.40
2023-01-11T12:09:31.044Z,8.58
2023-01-11T12:14:35.399Z,8.52
2023-01-11T12:19:42.797Z,8.65
2023-01-11T12:24:48.437Z,8.73
2023-01-11T12:30:34.084Z,8.74
2023-01-11T12:35:57.154Z,8.66
2023-01-11T12:41:08.852Z,8.78
2023-01-11T12:46:44.578Z,8.58
2023-01-11T12:51:58.694Z,8.80
2023-01-11T12:57:31.937Z,8.95
2023-01-11T13:03:01.696Z,8.83
2023-01-11T13:08:09.345Z,9.11
2023-01-11T13:13:21.008Z,9.39
2023-01-11T13:18:34.257Z,9.37
2023-01-11T13:23:44.864Z,9.26
2023-01-11T13:28:52.191Z,9.16
2023-01-11T13:33:59.601Z,9.22
2023-01-11T13:39:36.632Z,9.34
2023-01-11T13:44:44.034Z,9.40
2023-01-11T13:50:06.089Z,9.15
2023-01-11T13:55:25.047Z,9.21
2023-01-11T14:00:50.378Z,9.47
2023-01-11T14:06:07.837Z,9.67
2023-01-11T14:11:15.796Z,9.78
2023-01-11T14:16:27.848Z,9.80
2023-01-11T14:21:54.155Z,10.17
2023-01-11T14:27:05.829Z,10.28
2023-01-11T14:32:32.205Z,10.30
2023-01-11T14:38:21.950Z,10.39
2023-01-11T14:43:45.711Z,10.55
2023-01-11T14:49:25.979Z,10.49
2023-01-11T14:54:32.628Z,10.77
2023-01-11T14:59:37.481Z,10.77
2023-01-11T15:04:59.926Z,10.58
2023-01-11T15:10:38.106Z,10.35
2023-01-11T15:15:58.789Z,10.27
2023-01-11T15:21:05.691Z,10.15
2023-01-11T15:26:09.796Z,10.13
2023-01-11T15:31:34.230Z,10.18
2023-01-11T15:36:57.873Z,10.19
2023-01-11T15:42:05.640Z,10.11
2023-01-11T15:47:38.292Z,10.05
2023-01-11T15:53:12.303Z,9.88
2023-01-11T15:58:35.992Z,9.77
2023-01-11T16:04:00.878Z,9.65
2023-01-11T16:09:24.292Z,9.68
2023-01-11T16:14:39.764Z,9.53
2023-01-11T16:19:45.233Z,9.51
2023-01-11T16:24:49.537Z,9.39
2023-01-11T16:29:51.931Z,9.33
2023-01-11T16:34:55.337Z,9.26
2023-01-11T16:40:12.950Z,9.27
2023-01-11T16:45:20.778Z,9.30
2023-01-11T16:50:28.557Z,9.18
2023-01-11T16:55:32.734Z,9.27
2023-01-11T17:00:39.962Z,9.18
2023-01-11T17:05:42.090Z,9.10
2023-01-11T17:10:45.236Z,8.96
2023-01-11T17:15:58.926Z,8.87
2023-01-11T17:21:00.984Z,8.76
2023-01-11T17:26:03.388Z,8.71
2023-01-11T17:31:05.447Z,8.66
2023-01-11T17:36:08.275Z,8.60
2023-01-11T17:41:34.531Z,8.51
2023-01-11T17:46:36.580Z,8.40
2023-01-11T17:51:40.621Z,7.97
2023-01-11T17:56:42.654Z,8.21
2023-01-11T18:01:52.868Z,8.24
2023-01-11T18:07:19.935Z,8.32
2023-01-11T18:12:23.730Z,8.25
2023-01-11T18:17:40.471Z,8.23
2023-01-11T18:22:56.120Z,8.04
2023-01-11T18:28:24.613Z,8.10
2023-01-11T18:33:32.121Z,7.94
2023-01-11T18:38:35.969Z,8.04
2023-01-11T18:43:38.128Z,8.04
2023-01-11T18:48:40.162Z,7.99
2023-01-11T18:53:42.084Z,7.95
2023-01-11T18:58:44.183Z,7.86
2023-01-11T19:03:46.412Z,7.82
2023-01-11T19:08:48.840Z,7.63
2023-01-11T19:13:50.946Z,7.68
2023-01-11T19:18:55.772Z,7.61
2023-01-11T19:23:58.852Z,7.30
2023-01-11T19:29:01.032Z,7.23
2023-01-11T19:34:03.119Z,7.30
2023-01-11T19:39:05.973Z,7.32
2023-01-11T19:44:07.976Z,7.26
2023-01-11T19:49:10.048Z,7.22
2023-01-11T19:54:14.791Z,7.22
2023-01-11T19:59:16.972Z,7.16
2023-01-11T20:04:20.114Z,7.14
2023-01-11T20:09:22.244Z,6.91
2023-01-11T20:14:25.308Z,6.95
2023-01-11T20:19:27.441Z,6.83
2023-01-11T20:24:30.171Z,6.89
2023-01-11T20:29:32.255Z,6.74
2023-01-11T20:34:34.386Z,6.80
2023-01-11T20:39:36.375Z,6.74
2023-01-11T20:44:38.500Z,6.64
2023-01-11T20:49:40.721Z,6.63
2023-01-11T20:54:42.684Z,6.63
2023-01-11T20:59:44.666Z,6.62
2023-01-11T21:04:46.752Z,6.65
2023-01-11T21:09:48.781Z,6.37
2023-01-11T21:14:50.830Z,6.62
2023-01-11T21:19:54.164Z,6.52
2023-01-11T21:24:56.259Z,6.50
2023-01-11T21:29:58.301Z,6.43
2023-01-11T21:35:00.398Z,6.31
2023-01-11T21:40:02.462Z,6.24
2023-01-11T21:45:05.631Z,6.32
2023-01-11T21:50:08.998Z,6.24
2023-01-11T21:55:14.364Z,6.20
2023-01-11T22:00:17.575Z,6.16
2023-01-11T22:05:19.893Z,6.09
2023-01-11T22:10:22.010Z,5.97
2023-01-11T22:15:24.031Z,5.97
2023-01-11T22:20:27.544Z,5.86
2023-01-11T22:25:29.504Z,5.85
2023-01-11T22:30:31.496Z,5.71
2023-01-11T22:35:33.663Z,5.76
2023-01-11T22:40:35.671Z,5.46
2023-01-11T22:45:37.687Z,5.37
2023-01-11T22:50:39.809Z,5.49
2023-01-11T22:55:41.820Z,5.45
2023-01-11T23:00:43.930Z,5.48
2023-01-11T23:05:46.469Z,5.40
2023-01-11T23:10:48.779Z,5.25
2023-01-11T23:15:54.706Z,5.21
2023-01-11T23:21:02.929Z,5.09
2023-01-11T23:26:06.136Z,5.02
2023-01-11T23:31:15.335Z,5.04
2023-01-11T23:36:18.917Z,4.97
2023-01-11T23:41:40.343Z,4.83
2023-01-11T23:47:01.091Z,4.88
2023-01-11T23:52:03.437Z,4.80
2023-01-11T23:57:05.640Z,4.88
